sensor_id;sensor_type;location;lat;lon;timestamp;P1;durP1;ratioP1;P2;durP2;ratioP2
24259;SDS011;12384;48.112;18.418;2023-11-21T00:00:35;10.03;;;9.53;;
24259;SDS011;12384;48.112;18.418;2023-11-21T00:03:03;9.70;;;9.27;;
24259;SDS011;12384;48.112;18.418;2023-11-21T00:05:34;9.60;;;9.20;;
24259;SDS011;12384;48.112;18.418;2023-11-21T00:08:03;10.47;;;9.97;;
24259;SDS011;12384;48.112;18.418;2023-11-21T00:10:32;9.80;;;9.30;;
24259;SDS011;12384;48.112;18.418;2023-11-21T00:13:01;10.43;;;9.93;;
24259;SDS011;12384;48.112;18.418;2023-11-21T00:15:29;10.40;;;9.90;;
24259;SDS011;12384;48.112;18.418;2023-11-21T00:17:58;10.40;;;9.90;;
24259;SDS011;12384;48.112;18.418;2023-11-21T00:20:27;10.57;;;10.07;;
24259;SDS011;12384;48.112;18.418;2023-11-21T00:22:57;10.37;;;9.87;;
24259;SDS011;12384;48.112;18.418;2023-11-21T00:25:26;10.77;;;10.27;;
24259;SDS011;12384;48.112;18.418;2023-11-21T00:27:54;10.40;;;9.90;;
24259;SDS011;12384;48.112;18.418;2023-11-21T00:30:23;10.53;;;10.03;;
24259;SDS011;12384;48.112;18.418;2023-11-21T00:32:51;10.23;;;9.73;;
24259;SDS011;12384;48.112;18.418;2023-11-21T00:35:20;10.40;;;9.90;;
24259;SDS011;12384;48.112;18.418;2023-11-21T00:37:48;10.83;;;10.33;;
24259;SDS011;12384;48.112;18.418;2023-11-21T00:40:18;10.90;;;10.40;;
24259;SDS011;12384;48.112;18.418;2023-11-21T00:42:48;10.40;;;9.90;;
24259;SDS011;12384;48.112;18.418;2023-11-21T00:45:17;11.03;;;10.53;;
24259;SDS011;12384;48.112;18.418;2023-11-21T00:47:45;10.40;;;9.90;;
24259;SDS011;12384;48.112;18.418;2023-11-21T00:50:14;10.30;;;9.80;;
24259;SDS011;12384;48.112;18.418;2023-11-21T00:52:42;10.23;;;9.73;;
24259;SDS011;12384;48.112;18.418;2023-11-21T00:55:11;10.40;;;9.90;;
24259;SDS011;12384;48.112;18.418;2023-11-21T00:57:42;10.33;;;9.83;;
24259;SDS011;12384;48.112;18.418;2023-11-21T01:00:11;10.67;;;10.07;;
24259;SDS011;12384;48.112;18.418;2023-11-21T01:02:43;9.30;;;8.90;;
24259;SDS011;12384;48.112;18.418;2023-11-21T01:05:13;9.30;;;8.90;;
24259;SDS011;12384;48.112;18.418;2023-11-21T01:07:42;10.83;;;10.33;;
24259;SDS011;12384;48.112;18.418;2023-11-21T01:10:10;10.33;;;9.83;;
24259;SDS011;12384;48.112;18.418;2023-11-21T01:12:39;10.07;;;9.57;;
24259;SDS011;12384;48.112;18.418;2023-11-21T01:15:09;9.67;;;9.27;;
24259;SDS011;12384;48.112;18.418;2023-11-21T01:17:39;10.90;;;10.37;;
24259;SDS011;12384;48.112;18.418;2023-11-21T01:20:08;10.40;;;9.80;;
24259;SDS011;12384;48.112;18.418;2023-11-21T01:22:40;9.50;;;9.10;;
24259;SDS011;12384;48.112;18.418;2023-11-21T01:25:10;10.10;;;9.60;;
24259;SDS011;12384;48.112;18.418;2023-11-21T01:27:43;10.63;;;10.13;;
24259;SDS011;12384;48.112;18.418;2023-11-21T01:30:12;10.73;;;10.23;;
24259;SDS011;12384;48.112;18.418;2023-11-21T01:32:43;10.20;;;9.70;;
24259;SDS011;12384;48.112;18.418;2023-11-21T01:35:11;9.47;;;9.07;;
24259;SDS011;12384;48.112;18.418;2023-11-21T01:37:40;10.33;;;9.83;;
24259;SDS011;12384;48.112;18.418;2023-11-21T01:40:09;10.60;;;10.10;;
24259;SDS011;12384;48.112;18.418;2023-11-21T01:42:42;10.30;;;9.80;;
24259;SDS011;12384;48.112;18.418;2023-11-21T01:45:13;10.37;;;9.87;;
24259;SDS011;12384;48.112;18.418;2023-11-21T01:47:42;10.43;;;9.93;;
24259;SDS011;12384;48.112;18.418;2023-11-21T01:50:13;10.70;;;10.20;;
24259;SDS011;12384;48.112;18.418;2023-11-21T01:52:45;11.43;;;10.73;;
24259;SDS011;12384;48.112;18.418;2023-11-21T01:55:16;10.30;;;9.80;;
24259;SDS011;12384;48.112;18.418;2023-11-21T01:57:52;11.43;;;10.83;;
24259;SDS011;12384;48.112;18.418;2023-11-21T02:00:20;10.90;;;10.40;;
24259;SDS011;12384;48.112;18.418;2023-11-21T02:02:50;10.57;;;10.07;;
24259;SDS011;12384;48.112;18.418;2023-11-21T02:05:19;10.63;;;10.03;;
24259;SDS011;12384;48.112;18.418;2023-11-21T02:07:48;11.07;;;10.50;;
24259;SDS011;12384;48.112;18.418;2023-11-21T02:10:19;10.73;;;10.23;;
24259;SDS011;12384;48.112;18.418;2023-11-21T02:12:52;10.83;;;10.33;;
24259;SDS011;12384;48.112;18.418;2023-11-21T02:15:22;11.13;;;10.53;;
24259;SDS011;12384;48.112;18.418;2023-11-21T02:17:55;10.83;;;10.33;;
24259;SDS011;12384;48.112;18.418;2023-11-21T02:20:26;10.20;;;9.70;;
24259;SDS011;12384;48.112;18.418;2023-11-21T02:22:58;11.10;;;10.47;;
24259;SDS011;12384;48.112;18.418;2023-11-21T02:25:28;11.10;;;10.60;;
24259;SDS011;12384;48.112;18.418;2023-11-21T02:27:57;10.53;;;10.03;;
24259;SDS011;12384;48.112;18.418;2023-11-21T02:30:27;10.77;;;10.27;;
24259;SDS011;12384;48.112;18.418;2023-11-21T02:32:58;11.90;;;11.30;;
24259;SDS011;12384;48.112;18.418;2023-11-21T02:35:27;10.80;;;10.30;;
24259;SDS011;12384;48.112;18.418;2023-11-21T02:37:59;11.80;;;11.10;;
24259;SDS011;12384;48.112;18.418;2023-11-21T02:40:29;10.93;;;10.37;;
24259;SDS011;12384;48.112;18.418;2023-11-21T02:42:58;10.60;;;10.10;;
24259;SDS011;12384;48.112;18.418;2023-11-21T02:45:26;11.23;;;10.73;;
24259;SDS011;12384;48.112;18.418;2023-11-21T02:47:55;10.60;;;10.10;;
24259;SDS011;12384;48.112;18.418;2023-11-21T02:50:25;10.83;;;10.33;;
24259;SDS011;12384;48.112;18.418;2023-11-21T02:52:54;10.70;;;10.20;;
24259;SDS011;12384;48.112;18.418;2023-11-21T02:55:28;10.30;;;9.80;;
24259;SDS011;12384;48.112;18.418;2023-11-21T02:57:57;9.63;;;9.13;;
24259;SDS011;12384;48.112;18.418;2023-11-21T03:00:26;10.33;;;9.83;;
24259;SDS011;12384;48.112;18.418;2023-11-21T03:02:55;9.43;;;9.03;;
24259;SDS011;12384;48.112;18.418;2023-11-21T03:05:25;10.20;;;9.70;;
24259;SDS011;12384;48.112;18.418;2023-11-21T03:07:55;10.17;;;9.67;;
24259;SDS011;12384;48.112;18.418;2023-11-21T03:10:25;9.87;;;9.37;;
24259;SDS011;12384;48.112;18.418;2023-11-21T03:12:56;10.50;;;10.00;;
24259;SDS011;12384;48.112;18.418;2023-11-21T03:15:25;10.13;;;9.63;;
24259;SDS011;12384;48.112;18.418;2023-11-21T03:17:53;10.43;;;9.93;;
24259;SDS011;12384;48.112;18.418;2023-11-21T03:20:23;9.97;;;9.47;;
24259;SDS011;12384;48.112;18.418;2023-11-21T03:22:52;10.00;;;9.50;;
24259;SDS011;12384;48.112;18.418;2023-11-21T03:25:21;9.53;;;9.13;;
24259;SDS011;12384;48.112;18.418;2023-11-21T03:27:51;10.23;;;9.73;;
24259;SDS011;12384;48.112;18.418;2023-11-21T03:30:21;11.03;;;10.43;;
24259;SDS011;12384;48.112;18.418;2023-11-21T03:32:50;10.63;;;10.13;;
24259;SDS011;12384;48.112;18.418;2023-11-21T03:35:19;11.03;;;10.53;;
24259;SDS011;12384;48.112;18.418;2023-11-21T03:37:48;11.13;;;10.53;;
24259;SDS011;12384;48.112;18.418;2023-11-21T03:40:17;10.70;;;10.20;;
24259;SDS011;12384;48.112;18.418;2023-11-21T03:42:47;10.60;;;10.10;;
24259;SDS011;12384;48.112;18.418;2023-11-21T03:45:15;10.10;;;9.60;;
24259;SDS011;12384;48.112;18.418;2023-11-21T03:47:46;10.77;;;10.27;;
24259;SDS011;12384;48.112;18.418;2023-11-21T03:50:15;10.50;;;10.00;;
24259;SDS011;12384;48.112;18.418;2023-11-21T03:52:44;10.67;;;10.17;;
24259;SDS011;12384;48.112;18.418;2023-11-21T03:55:12;10.57;;;10.07;;
24259;SDS011;12384;48.112;18.418;2023-11-21T03:57:42;10.37;;;9.87;;
24259;SDS011;12384;48.112;18.418;2023-11-21T04:00:10;10.47;;;9.97;;
24259;SDS011;12384;48.112;18.418;2023-11-21T04:02:39;11.00;;;10.50;;
24259;SDS011;12384;48.112;18.418;2023-11-21T04:05:09;10.63;;;10.13;;
24259;SDS011;12384;48.112;18.418;2023-11-21T04:07:38;10.33;;;9.83;;
24259;SDS011;12384;48.112;18.418;2023-11-21T04:10:07;10.73;;;10.23;;
24259;SDS011;12384;48.112;18.418;2023-11-21T04:12:39;10.77;;;10.27;;
24259;SDS011;12384;48.112;18.418;2023-11-21T04:15:08;11.70;;;11.00;;
24259;SDS011;12384;48.112;18.418;2023-11-21T04:17:37;10.67;;;10.17;;
24259;SDS011;12384;48.112;18.418;2023-11-21T04:20:06;10.43;;;9.90;;
24259;SDS011;12384;48.112;18.418;2023-11-21T04:22:38;11.07;;;10.57;;
24259;SDS011;12384;48.112;18.418;2023-11-21T04:25:11;10.90;;;10.40;;
24259;SDS011;12384;48.112;18.418;2023-11-21T04:27:42;10.70;;;10.20;;
24259;SDS011;12384;48.112;18.418;2023-11-21T04:30:12;10.70;;;10.20;;
24259;SDS011;12384;48.112;18.418;2023-11-21T04:32:41;11.27;;;10.77;;
24259;SDS011;12384;48.112;18.418;2023-11-21T04:35:10;10.27;;;9.77;;
24259;SDS011;12384;48.112;18.418;2023-11-21T04:37:40;11.57;;;11.03;;
24259;SDS011;12384;48.112;18.418;2023-11-21T04:40:09;11.30;;;10.77;;
24259;SDS011;12384;48.112;18.418;2023-11-21T04:42:38;10.60;;;10.10;;
24259;SDS011;12384;48.112;18.418;2023-11-21T04:45:07;10.70;;;10.20;;
24259;SDS011;12384;48.112;18.418;2023-11-21T04:47:39;11.70;;;11.13;;
24259;SDS011;12384;48.112;18.418;2023-11-21T04:50:07;10.90;;;10.40;;
24259;SDS011;12384;48.112;18.418;2023-11-21T04:52:36;10.33;;;9.83;;
24259;SDS011;12384;48.112;18.418;2023-11-21T04:55:06;9.63;;;9.23;;
24259;SDS011;12384;48.112;18.418;2023-11-21T04:57:37;11.03;;;10.53;;
24259;SDS011;12384;48.112;18.418;2023-11-21T05:00:08;10.73;;;10.23;;
24259;SDS011;12384;48.112;18.418;2023-11-21T05:02:38;10.27;;;9.77;;
24259;SDS011;12384;48.112;18.418;2023-11-21T05:05:08;9.27;;;8.87;;
24259;SDS011;12384;48.112;18.418;2023-11-21T05:07:37;9.60;;;9.20;;
24259;SDS011;12384;48.112;18.418;2023-11-21T05:10:08;9.80;;;9.30;;
24259;SDS011;12384;48.112;18.418;2023-11-21T05:12:39;10.80;;;10.30;;
24259;SDS011;12384;48.112;18.418;2023-11-21T05:15:09;10.50;;;10.00;;
24259;SDS011;12384;48.112;18.418;2023-11-21T05:17:41;10.17;;;9.67;;
24259;SDS011;12384;48.112;18.418;2023-11-21T05:20:11;9.93;;;9.43;;
24259;SDS011;12384;48.112;18.418;2023-11-21T05:22:45;10.73;;;10.23;;
24259;SDS011;12384;48.112;18.418;2023-11-21T05:25:15;11.40;;;10.63;;
24259;SDS011;12384;48.112;18.418;2023-11-21T05:27:45;11.27;;;10.77;;
24259;SDS011;12384;48.112;18.418;2023-11-21T05:30:13;10.40;;;9.90;;
24259;SDS011;12384;48.112;18.418;2023-11-21T05:32:42;10.20;;;9.70;;
24259;SDS011;12384;48.112;18.418;2023-11-21T05:35:11;10.80;;;10.30;;
24259;SDS011;12384;48.112;18.418;2023-11-21T05:37:43;11.77;;;11.17;;
24259;SDS011;12384;48.112;18.418;2023-11-21T05:40:15;10.03;;;9.53;;
24259;SDS011;12384;48.112;18.418;2023-11-21T05:42:43;10.10;;;9.60;;
24259;SDS011;12384;48.112;18.418;2023-11-21T05:45:13;11.07;;;10.47;;
24259;SDS011;12384;48.112;18.418;2023-11-21T05:47:43;10.20;;;9.70;;
24259;SDS011;12384;48.112;18.418;2023-11-21T05:50:13;10.53;;;10.03;;
24259;SDS011;12384;48.112;18.418;2023-11-21T05:52:44;10.33;;;9.83;;
24259;SDS011;12384;48.112;18.418;2023-11-21T05:55:14;10.93;;;10.43;;
24259;SDS011;12384;48.112;18.418;2023-11-21T05:57:43;10.50;;;10.00;;
24259;SDS011;12384;48.112;18.418;2023-11-21T06:00:13;10.77;;;10.27;;
24259;SDS011;12384;48.112;18.418;2023-11-21T06:02:48;11.80;;;11.20;;
24259;SDS011;12384;48.112;18.418;2023-11-21T06:05:20;11.00;;;10.50;;
24259;SDS011;12384;48.112;18.418;2023-11-21T06:07:52;10.90;;;10.40;;
24259;SDS011;12384;48.112;18.418;2023-11-21T06:10:23;10.90;;;10.40;;
24259;SDS011;12384;48.112;18.418;2023-11-21T06:12:52;11.07;;;10.57;;
24259;SDS011;12384;48.112;18.418;2023-11-21T06:15:21;10.57;;;10.07;;
24259;SDS011;12384;48.112;18.418;2023-11-21T06:17:50;11.47;;;10.87;;
24259;SDS011;12384;48.112;18.418;2023-11-21T06:20:20;10.33;;;9.83;;
24259;SDS011;12384;48.112;18.418;2023-11-21T06:22:50;10.13;;;9.63;;
24259;SDS011;12384;48.112;18.418;2023-11-21T06:25:19;10.80;;;10.30;;
24259;SDS011;12384;48.112;18.418;2023-11-21T06:27:50;10.80;;;10.30;;
24259;SDS011;12384;48.112;18.418;2023-11-21T06:30:20;10.30;;;9.80;;
24259;SDS011;12384;48.112;18.418;2023-11-21T06:32:50;10.70;;;10.20;;
24259;SDS011;12384;48.112;18.418;2023-11-21T06:35:20;10.20;;;9.70;;
24259;SDS011;12384;48.112;18.418;2023-11-21T06:37:49;10.53;;;10.03;;
24259;SDS011;12384;48.112;18.418;2023-11-21T06:40:18;10.10;;;9.60;;
24259;SDS011;12384;48.112;18.418;2023-11-21T06:42:49;9.93;;;9.43;;
24259;SDS011;12384;48.112;18.418;2023-11-21T06:45:18;10.33;;;9.73;;
24259;SDS011;12384;48.112;18.418;2023-11-21T06:47:48;10.57;;;10.07;;
24259;SDS011;12384;48.112;18.418;2023-11-21T06:50:17;10.20;;;9.70;;
24259;SDS011;12384;48.112;18.418;2023-11-21T06:52:46;11.03;;;10.40;;
24259;SDS011;12384;48.112;18.418;2023-11-21T06:55:15;10.40;;;9.83;;
24259;SDS011;12384;48.112;18.418;2023-11-21T06:57:44;10.60;;;10.10;;
24259;SDS011;12384;48.112;18.418;2023-11-21T07:00:16;9.80;;;9.33;;
24259;SDS011;12384;48.112;18.418;2023-11-21T07:02:45;10.53;;;9.73;;
24259;SDS011;12384;48.112;18.418;2023-11-21T07:05:14;10.10;;;9.60;;
24259;SDS011;12384;48.112;18.418;2023-11-21T07:07:48;10.27;;;9.77;;
24259;SDS011;12384;48.112;18.418;2023-11-21T07:10:17;9.90;;;9.40;;
24259;SDS011;12384;48.112;18.418;2023-11-21T07:12:46;10.10;;;9.60;;
24259;SDS011;12384;48.112;18.418;2023-11-21T07:15:16;9.60;;;9.20;;
24259;SDS011;12384;48.112;18.418;2023-11-21T07:17:46;9.80;;;9.30;;
24259;SDS011;12384;48.112;18.418;2023-11-21T07:20:15;9.73;;;9.13;;
24259;SDS011;12384;48.112;18.418;2023-11-21T07:22:45;9.47;;;9.07;;
24259;SDS011;12384;48.112;18.418;2023-11-21T07:25:13;9.53;;;9.13;;
24259;SDS011;12384;48.112;18.418;2023-11-21T07:27:42;9.47;;;9.07;;
24259;SDS011;12384;48.112;18.418;2023-11-21T07:30:11;9.60;;;9.20;;
24259;SDS011;12384;48.112;18.418;2023-11-21T07:32:41;9.00;;;8.60;;
24259;SDS011;12384;48.112;18.418;2023-11-21T07:35:11;8.97;;;8.57;;
24259;SDS011;12384;48.112;18.418;2023-11-21T07:37:40;9.63;;;8.87;;
24259;SDS011;12384;48.112;18.418;2023-11-21T07:40:09;9.07;;;8.63;;
24259;SDS011;12384;48.112;18.418;2023-11-21T07:42:40;9.80;;;9.30;;
24259;SDS011;12384;48.112;18.418;2023-11-21T07:45:10;9.00;;;8.60;;
24259;SDS011;12384;48.112;18.418;2023-11-21T07:47:39;9.60;;;9.20;;
24259;SDS011;12384;48.112;18.418;2023-11-21T07:50:10;9.23;;;8.83;;
24259;SDS011;12384;48.112;18.418;2023-11-21T07:52:40;8.97;;;8.57;;
24259;SDS011;12384;48.112;18.418;2023-11-21T07:55:09;8.93;;;8.53;;
24259;SDS011;12384;48.112;18.418;2023-11-21T07:57:38;8.90;;;8.50;;
24259;SDS011;12384;48.112;18.418;2023-11-21T08:00:07;8.77;;;8.37;;
24259;SDS011;12384;48.112;18.418;2023-11-21T08:02:38;9.60;;;9.13;;
24259;SDS011;12384;48.112;18.418;2023-11-21T08:05:11;9.53;;;9.13;;
24259;SDS011;12384;48.112;18.418;2023-11-21T08:07:50;9.97;;;9.47;;
24259;SDS011;12384;48.112;18.418;2023-11-21T08:10:19;9.00;;;8.60;;
24259;SDS011;12384;48.112;18.418;2023-11-21T08:12:48;8.60;;;8.20;;
24259;SDS011;12384;48.112;18.418;2023-11-21T08:15:18;8.60;;;8.20;;
24259;SDS011;12384;48.112;18.418;2023-11-21T08:17:47;8.17;;;7.77;;
24259;SDS011;12384;48.112;18.418;2023-11-21T08:20:17;8.67;;;8.27;;
24259;SDS011;12384;48.112;18.418;2023-11-21T08:22:46;8.10;;;7.70;;
24259;SDS011;12384;48.112;18.418;2023-11-21T08:25:15;8.67;;;8.27;;
24259;SDS011;12384;48.112;18.418;2023-11-21T08:27:47;9.20;;;8.70;;
24259;SDS011;12384;48.112;18.418;2023-11-21T08:30:15;9.93;;;9.43;;
24259;SDS011;12384;48.112;18.418;2023-11-21T08:32:46;9.37;;;8.97;;
24259;SDS011;12384;48.112;18.418;2023-11-21T08:35:14;9.60;;;9.10;;
24259;SDS011;12384;48.112;18.418;2023-11-21T08:37:45;10.07;;;9.57;;
24259;SDS011;12384;48.112;18.418;2023-11-21T08:40:14;9.40;;;9.00;;
24259;SDS011;12384;48.112;18.418;2023-11-21T08:42:44;9.70;;;9.20;;
24259;SDS011;12384;48.112;18.418;2023-11-21T08:45:13;9.90;;;9.33;;
24259;SDS011;12384;48.112;18.418;2023-11-21T08:47:44;9.80;;;9.30;;
24259;SDS011;12384;48.112;18.418;2023-11-21T08:50:13;10.23;;;9.73;;
24259;SDS011;12384;48.112;18.418;2023-11-21T08:52:43;10.93;;;10.33;;
24259;SDS011;12384;48.112;18.418;2023-11-21T08:55:13;10.67;;;10.17;;
24259;SDS011;12384;48.112;18.418;2023-11-21T08:57:43;10.30;;;9.80;;
24259;SDS011;12384;48.112;18.418;2023-11-21T09:00:13;11.17;;;10.67;;
24259;SDS011;12384;48.112;18.418;2023-11-21T09:02:44;10.10;;;9.60;;
24259;SDS011;12384;48.112;18.418;2023-11-21T09:05:13;10.90;;;10.30;;
24259;SDS011;12384;48.112;18.418;2023-11-21T09:07:44;10.23;;;9.73;;
24259;SDS011;12384;48.112;18.418;2023-11-21T09:10:15;11.10;;;10.60;;
24259;SDS011;12384;48.112;18.418;2023-11-21T09:12:45;9.87;;;9.40;;
24259;SDS011;12384;48.112;18.418;2023-11-21T09:15:13;10.87;;;10.37;;
24259;SDS011;12384;48.112;18.418;2023-11-21T09:17:42;10.13;;;9.63;;
24259;SDS011;12384;48.112;18.418;2023-11-21T09:20:12;11.13;;;10.53;;
24259;SDS011;12384;48.112;18.418;2023-11-21T09:22:41;10.43;;;9.93;;
24259;SDS011;12384;48.112;18.418;2023-11-21T09:25:13;11.50;;;10.90;;
24259;SDS011;12384;48.112;18.418;2023-11-21T09:27:41;11.03;;;10.53;;
24259;SDS011;12384;48.112;18.418;2023-11-21T09:30:11;11.70;;;11.10;;
24259;SDS011;12384;48.112;18.418;2023-11-21T09:32:41;10.60;;;10.10;;
24259;SDS011;12384;48.112;18.418;2023-11-21T09:35:12;10.07;;;9.57;;
24259;SDS011;12384;48.112;18.418;2023-11-21T09:37:44;9.97;;;9.47;;
24259;SDS011;12384;48.112;18.418;2023-11-21T09:40:16;10.23;;;9.63;;
24259;SDS011;12384;48.112;18.418;2023-11-21T09:42:53;11.67;;;10.97;;
24259;SDS011;12384;48.112;18.418;2023-11-21T09:45:27;8.97;;;8.50;;
24259;SDS011;12384;48.112;18.418;2023-11-21T09:47:58;10.20;;;9.70;;
24259;SDS011;12384;48.112;18.418;2023-11-21T09:50:27;8.77;;;8.37;;
24259;SDS011;12384;48.112;18.418;2023-11-21T09:53:06;9.70;;;9.23;;
24259;SDS011;12384;48.112;18.418;2023-11-21T09:55:42;9.73;;;9.23;;
24259;SDS011;12384;48.112;18.418;2023-11-21T09:58:12;9.67;;;9.17;;
24259;SDS011;12384;48.112;18.418;2023-11-21T10:00:42;9.37;;;8.93;;
24259;SDS011;12384;48.112;18.418;2023-11-21T10:03:11;10.07;;;9.57;;
24259;SDS011;12384;48.112;18.418;2023-11-21T10:05:40;9.53;;;9.03;;
24259;SDS011;12384;48.112;18.418;2023-11-21T10:08:14;9.50;;;9.00;;
24259;SDS011;12384;48.112;18.418;2023-11-21T10:10:42;8.73;;;8.33;;
24259;SDS011;12384;48.112;18.418;2023-11-21T10:13:12;8.73;;;8.33;;
24259;SDS011;12384;48.112;18.418;2023-11-21T10:15:44;9.00;;;8.60;;
24259;SDS011;12384;48.112;18.418;2023-11-21T10:18:17;9.50;;;9.00;;
24259;SDS011;12384;48.112;18.418;2023-11-21T10:20:46;8.80;;;8.30;;
24259;SDS011;12384;48.112;18.418;2023-11-21T10:23:22;8.93;;;8.47;;
24259;SDS011;12384;48.112;18.418;2023-11-21T10:25:51;7.80;;;7.40;;
24259;SDS011;12384;48.112;18.418;2023-11-21T10:28:24;9.60;;;9.10;;
24259;SDS011;12384;48.112;18.418;2023-11-21T10:30:52;8.90;;;8.50;;
24259;SDS011;12384;48.112;18.418;2023-11-21T10:33:26;9.00;;;8.57;;
24259;SDS011;12384;48.112;18.418;2023-11-21T10:35:56;9.33;;;8.83;;
24259;SDS011;12384;48.112;18.418;2023-11-21T10:38:27;8.93;;;8.53;;
24259;SDS011;12384;48.112;18.418;2023-11-21T10:40:57;8.43;;;8.03;;
24259;SDS011;12384;48.112;18.418;2023-11-21T10:43:26;8.50;;;8.10;;
24259;SDS011;12384;48.112;18.418;2023-11-21T10:45:57;8.53;;;8.13;;
24259;SDS011;12384;48.112;18.418;2023-11-21T10:48:27;8.40;;;8.00;;
24259;SDS011;12384;48.112;18.418;2023-11-21T10:50:55;8.20;;;7.80;;
24259;SDS011;12384;48.112;18.418;2023-11-21T10:53:29;8.83;;;8.40;;
24259;SDS011;12384;48.112;18.418;2023-11-21T10:56:01;9.60;;;9.10;;
24259;SDS011;12384;48.112;18.418;2023-11-21T10:58:33;8.70;;;8.30;;
24259;SDS011;12384;48.112;18.418;2023-11-21T11:01:05;8.73;;;8.33;;
24259;SDS011;12384;48.112;18.418;2023-11-21T11:03:38;8.87;;;8.47;;
24259;SDS011;12384;48.112;18.418;2023-11-21T11:06:07;8.20;;;7.80;;
24259;SDS011;12384;48.112;18.418;2023-11-21T11:08:40;8.33;;;7.93;;
24259;SDS011;12384;48.112;18.418;2023-11-21T11:11:09;9.00;;;8.50;;
24259;SDS011;12384;48.112;18.418;2023-11-21T11:13:39;8.83;;;8.43;;
24259;SDS011;12384;48.112;18.418;2023-11-21T11:16:12;9.20;;;8.70;;
24259;SDS011;12384;48.112;18.418;2023-11-21T11:18:44;8.30;;;7.90;;
24259;SDS011;12384;48.112;18.418;2023-11-21T11:24:13;8.50;;;8.10;;
24259;SDS011;12384;48.112;18.418;2023-11-21T11:27:01;8.63;;;8.23;;
24259;SDS011;12384;48.112;18.418;2023-11-21T11:29:41;8.77;;;8.27;;
24259;SDS011;12384;48.112;18.418;2023-11-21T11:32:32;8.50;;;8.10;;
24259;SDS011;12384;48.112;18.418;2023-11-21T11:35:10;8.00;;;7.60;;
24259;SDS011;12384;48.112;18.418;2023-11-21T11:37:46;8.93;;;8.53;;
24259;SDS011;12384;48.112;18.418;2023-11-21T11:40:16;8.10;;;7.70;;
24259;SDS011;12384;48.112;18.418;2023-11-21T11:42:56;9.70;;;9.20;;
24259;SDS011;12384;48.112;18.418;2023-11-21T11:45:25;9.50;;;9.10;;
24259;SDS011;12384;48.112;18.418;2023-11-21T11:48:00;10.00;;;9.50;;
24259;SDS011;12384;48.112;18.418;2023-11-21T11:50:30;10.70;;;10.20;;
24259;SDS011;12384;48.112;18.418;2023-11-21T11:53:11;9.13;;;8.73;;
24259;SDS011;12384;48.112;18.418;2023-11-21T11:55:42;10.20;;;9.70;;
24259;SDS011;12384;48.112;18.418;2023-11-21T11:58:12;10.83;;;10.13;;
24259;SDS011;12384;48.112;18.418;2023-11-21T12:00:40;9.97;;;9.47;;
24259;SDS011;12384;48.112;18.418;2023-11-21T12:03:13;9.83;;;9.33;;
24259;SDS011;12384;48.112;18.418;2023-11-21T12:05:41;9.57;;;9.10;;
24259;SDS011;12384;48.112;18.418;2023-11-21T12:08:12;9.97;;;9.47;;
24259;SDS011;12384;48.112;18.418;2023-11-21T12:10:42;10.10;;;9.60;;
24259;SDS011;12384;48.112;18.418;2023-11-21T12:13:11;10.03;;;9.53;;
24259;SDS011;12384;48.112;18.418;2023-11-21T12:15:40;9.80;;;9.30;;
24259;SDS011;12384;48.112;18.418;2023-11-21T12:18:09;10.30;;;9.80;;
24259;SDS011;12384;48.112;18.418;2023-11-21T12:20:37;10.17;;;9.67;;
24259;SDS011;12384;48.112;18.418;2023-11-21T12:23:07;11.07;;;10.47;;
24259;SDS011;12384;48.112;18.418;2023-11-21T12:25:38;10.03;;;9.53;;
24259;SDS011;12384;48.112;18.418;2023-11-21T12:28:09;9.63;;;9.13;;
24259;SDS011;12384;48.112;18.418;2023-11-21T12:30:38;10.30;;;9.80;;
24259;SDS011;12384;48.112;18.418;2023-11-21T12:33:07;9.27;;;8.77;;
24259;SDS011;12384;48.112;18.418;2023-11-21T12:35:37;9.03;;;8.63;;
24259;SDS011;12384;48.112;18.418;2023-11-21T12:38:05;9.40;;;8.90;;
24259;SDS011;12384;48.112;18.418;2023-11-21T12:40:36;9.80;;;9.30;;
24259;SDS011;12384;48.112;18.418;2023-11-21T12:43:04;10.50;;;9.90;;
24259;SDS011;12384;48.112;18.418;2023-11-21T12:45:37;10.00;;;9.50;;
24259;SDS011;12384;48.112;18.418;2023-11-21T12:48:06;9.97;;;9.47;;
24259;SDS011;12384;48.112;18.418;2023-11-21T12:50:38;10.57;;;10.07;;
24259;SDS011;12384;48.112;18.418;2023-11-21T12:53:08;10.23;;;9.73;;
24259;SDS011;12384;48.112;18.418;2023-11-21T12:55:40;9.80;;;9.20;;
24259;SDS011;12384;48.112;18.418;2023-11-21T12:58:09;9.83;;;9.33;;
24259;SDS011;12384;48.112;18.418;2023-11-21T13:00:42;9.77;;;9.27;;
24259;SDS011;12384;48.112;18.418;2023-11-21T13:03:13;10.23;;;9.73;;
24259;SDS011;12384;48.112;18.418;2023-11-21T13:05:45;10.05;;;9.55;;
24259;SDS011;12384;48.112;18.418;2023-11-21T13:08:19;10.20;;;9.70;;
24259;SDS011;12384;48.112;18.418;2023-11-21T13:10:50;11.00;;;10.50;;
24259;SDS011;12384;48.112;18.418;2023-11-21T13:13:22;10.13;;;9.63;;
24259;SDS011;12384;48.112;18.418;2023-11-21T13:15:53;9.90;;;9.40;;
24259;SDS011;12384;48.112;18.418;2023-11-21T13:18:24;10.07;;;9.57;;
24259;SDS011;12384;48.112;18.418;2023-11-21T13:20:54;9.45;;;8.95;;
24259;SDS011;12384;48.112;18.418;2023-11-21T13:23:23;9.40;;;9.00;;
24259;SDS011;12384;48.112;18.418;2023-11-21T13:25:51;9.30;;;8.88;;
24259;SDS011;12384;48.112;18.418;2023-11-21T13:28:30;9.50;;;9.07;;
24259;SDS011;12384;48.112;18.418;2023-11-21T13:31:02;10.27;;;9.77;;
24259;SDS011;12384;48.112;18.418;2023-11-21T13:33:37;9.87;;;9.37;;
24259;SDS011;12384;48.112;18.418;2023-11-21T13:36:08;10.00;;;9.50;;
24259;SDS011;12384;48.112;18.418;2023-11-21T13:38:37;9.90;;;9.40;;
24259;SDS011;12384;48.112;18.418;2023-11-21T13:41:10;9.80;;;9.30;;
24259;SDS011;12384;48.112;18.418;2023-11-21T13:43:41;9.60;;;9.10;;
24259;SDS011;12384;48.112;18.418;2023-11-21T13:46:16;9.33;;;8.83;;
24259;SDS011;12384;48.112;18.418;2023-11-21T13:48:49;9.60;;;9.10;;
24259;SDS011;12384;48.112;18.418;2023-11-21T13:51:23;9.40;;;8.90;;
24259;SDS011;12384;48.112;18.418;2023-11-21T13:54:04;9.00;;;8.60;;
24259;SDS011;12384;48.112;18.418;2023-11-21T13:56:36;9.40;;;8.90;;
24259;SDS011;12384;48.112;18.418;2023-11-21T13:59:06;9.30;;;8.80;;
24259;SDS011;12384;48.112;18.418;2023-11-21T14:01:46;9.53;;;9.03;;
24259;SDS011;12384;48.112;18.418;2023-11-21T14:04:24;9.27;;;8.87;;
24259;SDS011;12384;48.112;18.418;2023-11-21T14:07:14;9.07;;;8.67;;
24259;SDS011;12384;48.112;18.418;2023-11-21T14:09:53;9.43;;;9.03;;
24259;SDS011;12384;48.112;18.418;2023-11-21T14:12:22;10.07;;;9.57;;
24259;SDS011;12384;48.112;18.418;2023-11-21T14:14:51;10.03;;;9.53;;
24259;SDS011;12384;48.112;18.418;2023-11-21T14:17:23;9.10;;;8.60;;
24259;SDS011;12384;48.112;18.418;2023-11-21T14:19:51;10.00;;;9.50;;
24259;SDS011;12384;48.112;18.418;2023-11-21T14:22:22;8.83;;;8.43;;
24259;SDS011;12384;48.112;18.418;2023-11-21T14:24:52;9.30;;;8.90;;
24259;SDS011;12384;48.112;18.418;2023-11-21T14:27:25;10.27;;;9.77;;
24259;SDS011;12384;48.112;18.418;2023-11-21T14:29:54;9.43;;;9.03;;
24259;SDS011;12384;48.112;18.418;2023-11-21T14:32:25;10.13;;;9.63;;
24259;SDS011;12384;48.112;18.418;2023-11-21T14:34:54;9.77;;;9.27;;
24259;SDS011;12384;48.112;18.418;2023-11-21T14:37:22;10.33;;;9.83;;
24259;SDS011;12384;48.112;18.418;2023-11-21T14:39:52;9.93;;;9.43;;
24259;SDS011;12384;48.112;18.418;2023-11-21T14:42:21;10.33;;;9.83;;
24259;SDS011;12384;48.112;18.418;2023-11-21T14:44:52;10.10;;;9.60;;